Main page
METAR-TAF:

METAR-TAF

Airports :

Nanning Wuxu International Airport

Nanning, China

latitude: 22-49N, longitude: 108-21E, elevation: 73 m

Current weather observation

The report was made 1 hour and 0 minutes ago, at 17:00 UTC
Calm wind
Temperature 8°C
Humidity 76%
Pressure 1021 hPa
Visibility 10 km or more
no clouds below 1500 m and no cumulonimbus

METAR: ZGNN 091700Z 00000MPS CAVOK 08/04 Q1021 NOSIG

Time: 02:00 (18:00 UTC)

Forecast

The report was made 2 hours and 54 minutes ago, at 15:06 UTC
Forecast valid from 09 at 18 UTC to 10 at 18 UTC
Wind 6 kt from the East/Northeast
Visibility: 5000 m
mist

TAF: ZGNN 091506Z 0918/1018 06003MPS 5000 BR NSC TX23/1007Z TN07/0922Z

Weather observations and forecasts of more than 4000 airports (METAR and TAF reports).

The available stations are represented by yellow and red dots on the map.

Hover mouse over dot to see the name of the station.

Then click to see weather observations and forecasts.

To change the map : click on the green buttons with a black cross to zoom in, on the green button with a dash to zoom out, or on the green arrows for adjacent maps.


METAR-TAF: